createdAt,value
2023-02-22T00:00:20.027Z,5.90
2023-02-22T00:02:53.228Z,6.00
2023-02-22T00:05:25.624Z,5.90
2023-02-22T00:07:59.954Z,6.00
2023-02-22T00:10:39.027Z,6.00
2023-02-22T00:13:16.520Z,5.90
2023-02-22T00:15:50.424Z,6.00
2023-02-22T00:18:22.381Z,6.00
2023-02-22T00:20:53.015Z,5.90
2023-02-22T00:23:28.671Z,5.90
2023-02-22T00:26:00.187Z,5.90
2023-02-22T00:28:32.381Z,5.90
2023-02-22T00:31:05.069Z,5.90
2023-02-22T00:33:46.269Z,5.90
2023-02-22T00:36:15.956Z,5.90
2023-02-22T00:38:46.652Z,5.90
2023-02-22T00:41:16.263Z,5.90
2023-02-22T00:43:47.354Z,5.90
2023-02-22T00:46:18.420Z,6.00
2023-02-22T00:48:49.105Z,6.00
2023-02-22T00:51:29.778Z,6.00
2023-02-22T00:53:59.240Z,5.90
2023-02-22T00:56:29.831Z,5.90
2023-02-22T00:59:02.599Z,5.90
2023-02-22T01:01:39.396Z,5.90
2023-02-22T01:04:08.796Z,5.90
2023-02-22T01:06:39.200Z,5.90
2023-02-22T01:09:09.212Z,5.90
2023-02-22T01:11:43.001Z,5.90
2023-02-22T01:14:22.074Z,5.90
2023-02-22T01:17:04.621Z,5.90
2023-02-22T01:19:36.607Z,5.90
2023-02-22T01:25:18.366Z,5.90
2023-02-22T01:27:55.936Z,5.80
2023-02-22T01:30:33.561Z,5.80
2023-02-22T01:33:11.034Z,5.80
2023-02-22T01:35:44.086Z,5.80
2023-02-22T01:38:15.582Z,5.80
2023-02-22T01:40:50.896Z,5.80
2023-02-22T01:43:26.719Z,5.70
2023-02-22T01:46:02.461Z,5.70
2023-02-22T01:48:37.211Z,5.60
2023-02-22T01:51:12.101Z,5.60
2023-02-22T01:53:47.719Z,5.60
2023-02-22T01:56:21.474Z,5.60
2023-02-22T01:58:57.582Z,5.60
2023-02-22T02:01:29.755Z,5.50
2023-02-22T02:04:04.425Z,5.40
2023-02-22T02:06:39.821Z,5.40
2023-02-22T02:09:13.240Z,5.40
2023-02-22T02:11:44.469Z,5.40
2023-02-22T02:14:14.936Z,5.30
2023-02-22T02:16:52.390Z,5.30
2023-02-22T02:19:35.547Z,5.30
2023-02-22T02:22:21.606Z,5.30
2023-02-22T02:25:29.026Z,5.30
2023-02-22T02:28:43.985Z,5.20
2023-02-22T02:31:45.438Z,5.20
2023-02-22T02:34:22.829Z,5.60
2023-02-22T02:37:07.350Z,5.10
2023-02-22T02:39:43.440Z,5.20
2023-02-22T02:42:23.161Z,5.00
2023-02-22T02:44:59.032Z,5.00
2023-02-22T02:47:32.967Z,5.10
2023-02-22T02:50:09.228Z,5.30
2023-02-22T02:52:41.580Z,5.40
2023-02-22T02:55:14.165Z,5.30
2023-02-22T02:57:46.229Z,5.00
2023-02-22T03:00:29.455Z,5.20
2023-02-22T03:03:16.822Z,5.20
2023-02-22T03:06:30.861Z,5.20
2023-02-22T03:09:40.003Z,5.20
2023-02-22T03:12:30.784Z,5.40
2023-02-22T03:15:13.388Z,5.30
2023-02-22T03:17:50.589Z,5.10
2023-02-22T03:20:32.687Z,4.90
2023-02-22T03:23:11.908Z,5.20
2023-02-22T03:25:46.020Z,5.20
2023-02-22T03:28:19.743Z,4.80
2023-02-22T03:30:53.985Z,4.90
2023-02-22T03:33:34.632Z,4.70
2023-02-22T03:36:09.879Z,4.80
2023-02-22T03:38:45.561Z,4.70
2023-02-22T03:41:19.507Z,4.80
2023-02-22T03:43:56.300Z,4.70
2023-02-22T03:46:26.948Z,4.80
2023-02-22T03:49:04.013Z,4.70
2023-02-22T03:51:34.936Z,4.60
2023-02-22T03:54:07.109Z,4.60
2023-02-22T03:56:47.690Z,4.50
2023-02-22T03:59:19.017Z,4.40
2023-02-22T04:01:51.910Z,4.40
2023-02-22T04:04:24.350Z,4.40
2023-02-22T04:06:54.091Z,4.40
2023-02-22T04:09:25.866Z,4.40
2023-02-22T04:11:55.877Z,4.40
2023-02-22T04:14:26.708Z,4.50
2023-02-22T04:16:57.651Z,4.40
2023-02-22T04:19:31.724Z,4.40
2023-02-22T04:22:02.338Z,4.50
2023-02-22T04:24:33.940Z,4.50
2023-02-22T04:27:04.868Z,4.40
2023-02-22T04:29:38.072Z,4.50
2023-02-22T04:32:08.044Z,4.30
2023-02-22T04:34:39.551Z,4.40
2023-02-22T04:37:10.855Z,4.40
2023-02-22T04:39:45.108Z,4.50
2023-02-22T04:42:16.496Z,4.50
2023-02-22T04:44:46.302Z,4.50
2023-02-22T04:47:16.191Z,4.50
2023-02-22T04:49:46.565Z,4.60
2023-02-22T04:52:16.310Z,4.50
2023-02-22T04:54:49.386Z,4.50
2023-02-22T04:57:18.335Z,4.60
2023-02-22T04:59:48.369Z,4.60
2023-02-22T05:02:17.688Z,4.50
2023-02-22T05:04:46.917Z,4.50
2023-02-22T05:07:16.184Z,4.50
2023-02-22T05:09:50.442Z,4.50
2023-02-22T05:12:19.868Z,4.60
2023-02-22T05:14:48.430Z,4.60
2023-02-22T05:17:16.861Z,4.50
2023-02-22T05:19:45.341Z,4.60
2023-02-22T05:22:13.907Z,4.60
2023-02-22T05:24:44.136Z,4.50
2023-02-22T05:27:14.152Z,4.60
2023-02-22T05:29:43.013Z,4.50
2023-02-22T05:32:12.363Z,4.40
2023-02-22T05:34:41.237Z,4.40
2023-02-22T05:37:09.832Z,4.40
2023-02-22T05:39:38.351Z,4.40
2023-02-22T05:42:06.857Z,4.30
2023-02-22T05:44:36.987Z,4.30
2023-02-22T05:47:05.478Z,4.30
2023-02-22T05:49:33.971Z,4.30
2023-02-22T05:52:02.494Z,4.30
2023-02-22T05:54:31.367Z,4.20
2023-02-22T05:56:59.952Z,4.20
2023-02-22T05:59:32.977Z,4.30
2023-02-22T06:02:13.071Z,4.30
2023-02-22T06:04:46.804Z,4.20
2023-02-22T06:07:16.508Z,4.20
2023-02-22T06:09:46.852Z,4.20
2023-02-22T06:12:16.560Z,4.20
2023-02-22T06:14:47.707Z,4.10
2023-02-22T06:17:21.318Z,4.20
2023-02-22T06:19:52.038Z,4.10
2023-02-22T06:22:22.901Z,4.20
2023-02-22T06:24:55.157Z,4.20
2023-02-22T06:27:24.738Z,4.20
2023-02-22T06:29:57.188Z,4.20
2023-02-22T06:32:29.618Z,4.20
2023-02-22T06:34:58.924Z,4.20
2023-02-22T06:37:29.243Z,4.20
2023-02-22T06:40:02.752Z,4.20
2023-02-22T06:42:37.002Z,4.20
2023-02-22T06:45:07.239Z,4.20
2023-02-22T06:47:42.679Z,4.20
2023-02-22T06:50:21.072Z,4.20
2023-02-22T06:53:01.458Z,4.20
2023-02-22T06:55:36.038Z,4.20
2023-02-22T06:58:10.033Z,4.10
2023-02-22T07:00:41.904Z,4.20
2023-02-22T07:03:16.854Z,4.20
2023-02-22T07:05:46.338Z,4.20
2023-02-22T07:08:16.657Z,4.20
2023-02-22T07:10:45.540Z,4.20
2023-02-22T07:13:15.735Z,4.30
2023-02-22T07:15:45.340Z,4.20
2023-02-22T07:18:16.438Z,4.20
2023-02-22T07:20:45.582Z,4.20
2023-02-22T07:23:16.454Z,4.30
2023-02-22T07:25:46.078Z,4.40
2023-02-22T07:28:14.927Z,4.40
2023-02-22T07:30:47.843Z,4.30
2023-02-22T07:33:18.847Z,4.40
2023-02-22T07:35:49.428Z,4.40
2023-02-22T07:38:21.488Z,4.50
2023-02-22T07:40:51.045Z,4.50
2023-02-22T07:43:22.245Z,4.50
2023-02-22T07:45:52.602Z,4.70
2023-02-22T07:48:24.904Z,4.70
2023-02-22T07:50:53.709Z,4.80
2023-02-22T07:53:24.662Z,4.80
2023-02-22T07:55:53.946Z,4.80
2023-02-22T07:58:24.986Z,4.80
2023-02-22T08:00:54.798Z,4.90
2023-02-22T08:03:26.747Z,5.00
2023-02-22T08:05:57.828Z,5.10
2023-02-22T08:08:26.289Z,5.20
2023-02-22T08:10:55.800Z,5.40
2023-02-22T08:13:30.543Z,5.40
2023-02-22T08:16:03.699Z,5.60
2023-02-22T08:18:34.386Z,5.70
2023-02-22T08:21:16.523Z,5.90
2023-02-22T08:23:49.655Z,6.10
2023-02-22T08:26:18.628Z,6.10
2023-02-22T08:28:53.803Z,6.10
2023-02-22T08:31:38.564Z,6.30
2023-02-22T08:34:09.031Z,6.40
2023-02-22T08:36:49.241Z,6.40
2023-02-22T08:39:18.370Z,6.40
2023-02-22T08:41:54.002Z,6.50
2023-02-22T08:44:51.190Z,6.50
2023-02-22T08:47:36.715Z,6.50
2023-02-22T08:50:08.694Z,6.70
2023-02-22T08:52:58.788Z,6.70
2023-02-22T08:55:38.379Z,6.90
2023-02-22T08:58:09.970Z,7.00
2023-02-22T09:00:45.157Z,7.20
2023-02-22T09:03:16.098Z,7.20
2023-02-22T09:05:48.131Z,7.30
2023-02-22T09:08:18.132Z,7.40
2023-02-22T09:10:48.306Z,7.60
2023-02-22T09:13:17.330Z,7.60
2023-02-22T09:15:49.442Z,7.80
2023-02-22T09:18:18.326Z,7.90
2023-02-22T09:20:49.890Z,8.00
2023-02-22T09:23:21.325Z,8.10
2023-02-22T09:25:57.369Z,8.20
2023-02-22T09:28:29.309Z,8.20
2023-02-22T09:31:14.268Z,8.20
2023-02-22T09:33:43.209Z,8.30
2023-02-22T09:36:35.148Z,8.30
2023-02-22T09:39:05.519Z,8.40
2023-02-22T09:41:41.083Z,8.30
2023-02-22T09:44:21.556Z,8.30
2023-02-22T09:46:56.385Z,8.30
2023-02-22T09:49:30.133Z,8.40
2023-02-22T09:52:05.755Z,8.30
2023-02-22T09:54:46.836Z,8.30
2023-02-22T09:57:23.815Z,8.30
2023-02-22T10:00:12.994Z,8.30
2023-02-22T10:02:56.091Z,8.40
2023-02-22T10:05:34.638Z,8.40
2023-02-22T10:08:07.509Z,8.40
2023-02-22T10:10:39.652Z,8.40
2023-02-22T10:13:18.028Z,8.40
2023-02-22T10:15:52.584Z,8.40
2023-02-22T10:19:11.698Z,8.40
2023-02-22T10:21:59.745Z,8.40
2023-02-22T10:24:40.280Z,8.40
2023-02-22T10:27:24.809Z,8.40
2023-02-22T10:30:24.076Z,8.50
2023-02-22T10:32:59.734Z,8.50
2023-02-22T10:35:31.826Z,8.50
2023-02-22T10:38:05.708Z,8.50
2023-02-22T10:40:36.312Z,8.50
2023-02-22T10:43:07.209Z,8.50
2023-02-22T10:45:37.560Z,8.60
2023-02-22T10:48:11.974Z,8.60
2023-02-22T10:50:45.595Z,8.60
2023-02-22T10:53:24.125Z,8.70
2023-02-22T10:56:22.552Z,8.80
2023-02-22T10:59:00.753Z,8.90
2023-02-22T11:01:37.379Z,8.90
2023-02-22T11:04:13.672Z,9.10
2023-02-22T11:06:44.482Z,9.20
2023-02-22T11:09:19.160Z,9.30
2023-02-22T11:11:51.372Z,9.30
2023-02-22T11:14:28.999Z,9.40
2023-02-22T11:17:02.491Z,9.60
2023-02-22T11:19:40.710Z,9.70
2023-02-22T11:22:24.357Z,9.90
2023-02-22T11:24:58.719Z,10.00
2023-02-22T11:27:39.331Z,10.20
2023-02-22T11:30:22.014Z,10.30
2023-02-22T11:32:56.254Z,10.30
2023-02-22T11:38:19.621Z,10.60
2023-02-22T11:40:50.173Z,10.80
2023-02-22T11:43:22.165Z,10.60
2023-02-22T11:46:03.039Z,10.90
2023-02-22T11:48:40.065Z,11.00
2023-02-22T11:51:19.698Z,11.00
2023-02-22T11:54:42.820Z,10.90
2023-02-22T11:57:55.443Z,10.90
2023-02-22T12:00:48.197Z,10.90
2023-02-22T12:03:37.381Z,10.80
2023-02-22T12:06:25.069Z,10.80
2023-02-22T12:09:09.495Z,10.80
2023-02-22T12:11:47.788Z,10.90
2023-02-22T12:14:31.854Z,10.90
2023-02-22T12:17:24.556Z,11.00
2023-02-22T12:20:00.167Z,11.10
2023-02-22T12:22:33.664Z,11.10
2023-02-22T12:25:22.075Z,11.10
2023-02-22T12:27:56.366Z,11.10
2023-02-22T12:30:28.971Z,11.10
2023-02-22T12:33:01.888Z,11.10
2023-02-22T12:35:40.436Z,11.20
2023-02-22T12:38:18.351Z,11.20
2023-02-22T12:40:54.703Z,11.30
2023-02-22T12:43:33.636Z,11.40
2023-02-22T12:46:14.415Z,11.40
2023-02-22T12:48:53.385Z,11.40
2023-02-22T12:51:32.060Z,11.40
2023-02-22T12:54:16.118Z,11.40
2023-02-22T12:56:52.065Z,11.40
2023-02-22T12:59:27.379Z,11.40
2023-02-22T13:02:01.632Z,11.50
2023-02-22T13:04:35.187Z,11.50
2023-02-22T13:07:27.469Z,11.60
2023-02-22T13:10:30.755Z,11.60
2023-02-22T13:13:10.500Z,11.70
2023-02-22T13:15:55.495Z,11.70
2023-02-22T13:18:39.841Z,11.70
2023-02-22T13:21:23.676Z,11.80
2023-02-22T13:24:28.326Z,11.90
2023-02-22T13:27:16.017Z,11.80
2023-02-22T13:30:05.119Z,11.90
2023-02-22T13:32:45.653Z,11.90
2023-02-22T13:35:41.850Z,11.90
2023-02-22T13:38:52.371Z,12.00
2023-02-22T13:41:56.417Z,12.00
2023-02-22T13:44:55.851Z,12.10
2023-02-22T13:47:57.683Z,11.90
2023-02-22T13:51:12.327Z,12.00
2023-02-22T13:59:26.720Z,11.90
2023-02-22T14:01:56.443Z,12.00
2023-02-22T14:13:09.411Z,12.60
2023-02-22T14:16:02.055Z,11.80
2023-02-22T14:18:32.183Z,11.80
2023-02-22T14:21:08.053Z,11.80
2023-02-22T14:23:40.448Z,11.80
2023-02-22T14:26:19.073Z,11.70
2023-02-22T14:28:59.232Z,11.80
2023-02-22T14:31:36.841Z,11.70
2023-02-22T14:34:14.129Z,11.80
2023-02-22T14:36:57.311Z,11.60
2023-02-22T14:39:34.320Z,11.60
2023-02-22T14:42:15.770Z,11.60
2023-02-22T14:45:00.947Z,11.60
2023-02-22T15:08:52.623Z,11.40
2023-02-22T15:11:33.285Z,11.40
2023-02-22T15:14:26.371Z,11.30
2023-02-22T15:16:58.108Z,11.40
2023-02-22T15:19:32.001Z,11.30
2023-02-22T15:22:09.475Z,11.30
2023-02-22T15:24:40.042Z,11.30
2023-02-22T15:27:16.127Z,11.40
2023-02-22T15:29:46.397Z,11.20
2023-02-22T15:32:30.662Z,11.20
2023-02-22T15:35:20.167Z,11.20
2023-02-22T15:38:02.460Z,11.20
2023-02-22T15:40:35.650Z,11.20
2023-02-22T15:43:20.925Z,11.20
2023-02-22T15:45:56.438Z,11.20
2023-02-22T15:48:28.431Z,11.10
2023-02-22T15:51:10.467Z,11.10
2023-02-22T15:53:47.312Z,11.00
2023-02-22T15:56:20.224Z,11.00
2023-02-22T15:58:54.125Z,10.90
2023-02-22T16:01:26.750Z,10.90
2023-02-22T16:03:58.671Z,10.90
2023-02-22T16:06:39.230Z,10.70
2023-02-22T16:09:13.031Z,10.70
2023-02-22T16:11:45.930Z,10.70
2023-02-22T16:14:29.864Z,10.70
2023-02-22T16:17:32.510Z,10.70
2023-02-22T16:20:06.252Z,10.60
2023-02-22T16:22:38.187Z,10.70
2023-02-22T16:25:30.147Z,10.50
2023-02-22T16:28:06.421Z,10.50
2023-02-22T16:30:43.975Z,10.40
2023-02-22T16:33:33.267Z,10.50
2023-02-22T16:36:28.595Z,10.40
2023-02-22T16:39:04.028Z,10.40
2023-02-22T16:41:39.413Z,10.40
2023-02-22T16:44:13.459Z,10.40
2023-02-22T16:46:47.497Z,10.30
2023-02-22T16:49:21.716Z,10.40
2023-02-22T16:51:57.884Z,10.40
2023-02-22T16:54:34.855Z,10.30
2023-02-22T16:57:06.315Z,10.30
2023-02-22T16:59:40.743Z,10.30
2023-02-22T17:02:16.372Z,10.20
2023-02-22T17:04:51.818Z,10.20
2023-02-22T17:07:25.531Z,10.20
2023-02-22T17:09:59.845Z,10.20
2023-02-22T17:12:37.514Z,10.20
2023-02-22T17:15:08.694Z,10.00
2023-02-22T17:17:39.339Z,10.00
2023-02-22T17:20:15.466Z,10.00
2023-02-22T17:22:45.577Z,10.00
2023-02-22T17:25:26.577Z,10.00
2023-02-22T17:27:59.371Z,9.90
2023-02-22T17:30:39.359Z,9.90
2023-02-22T17:33:14.863Z,9.90
2023-02-22T17:35:51.662Z,9.90
2023-02-22T17:38:22.358Z,9.90
2023-02-22T17:40:53.122Z,9.90
2023-02-22T17:43:24.680Z,9.90
2023-02-22T17:45:56.305Z,9.80
2023-02-22T17:48:27.159Z,9.80
2023-02-22T17:50:59.428Z,9.90
2023-02-22T17:53:35.290Z,9.80
2023-02-22T17:56:09.509Z,9.80
2023-02-22T17:58:41.788Z,9.80
2023-02-22T18:12:08.497Z,9.60
2023-02-22T18:14:45.090Z,9.60
2023-02-22T18:17:16.610Z,9.60
2023-02-22T18:19:46.706Z,9.50
2023-02-22T18:22:18.951Z,9.70
2023-02-22T18:24:49.399Z,9.70
2023-02-22T18:27:18.997Z,9.80
2023-02-22T18:29:48.070Z,9.60
2023-02-22T18:32:19.108Z,9.60
2023-02-22T18:34:48.941Z,9.60
2023-02-22T18:37:21.874Z,9.60
2023-02-22T18:39:51.696Z,9.70
2023-02-22T18:42:25.782Z,9.50
2023-02-22T18:44:56.204Z,9.70
2023-02-22T18:47:30.457Z,9.60
2023-02-22T18:50:00.173Z,9.60
2023-02-22T18:52:31.454Z,9.70
2023-02-22T18:57:31.016Z,9.60
2023-02-22T19:00:01.407Z,9.50
2023-02-22T19:02:31.374Z,9.60
2023-02-22T19:58:09.880Z,9.70
2023-02-22T20:00:42.923Z,9.60
2023-02-22T20:03:23.957Z,9.50
2023-02-22T20:05:56.100Z,9.50
2023-02-22T20:08:27.042Z,9.40
2023-02-22T20:11:07.109Z,9.40
2023-02-22T20:13:36.428Z,9.40
2023-02-22T20:16:06.317Z,9.40
2023-02-22T20:18:38.405Z,9.40
2023-02-22T20:21:19.165Z,9.30
2023-02-22T20:23:49.123Z,9.30
2023-02-22T20:26:21.342Z,9.30
2023-02-22T20:28:50.200Z,9.30
2023-02-22T20:31:19.612Z,9.30
2023-02-22T20:33:51.508Z,9.30
2023-02-22T20:36:23.795Z,9.30
2023-02-22T20:38:55.835Z,9.30
2023-02-22T20:41:29.754Z,9.30
2023-02-22T20:44:01.031Z,9.20
2023-02-22T20:46:35.610Z,9.20
2023-02-22T20:49:07.543Z,9.20
2023-02-22T20:51:39.756Z,9.20
2023-02-22T20:54:12.649Z,9.20
2023-02-22T20:56:45.773Z,9.20
2023-02-22T20:59:18.695Z,9.20
2023-02-22T21:02:24.508Z,9.20
2023-02-22T21:07:29.981Z,9.20
2023-02-22T21:10:01.248Z,9.20
2023-02-22T21:12:36.222Z,9.20
2023-02-22T21:15:07.057Z,9.20
2023-02-22T21:22:49.854Z,9.40
2023-02-22T21:25:21.074Z,9.30
2023-02-22T21:27:54.449Z,9.20
2023-02-22T21:35:26.806Z,9.20
2023-02-22T21:37:59.681Z,9.30
2023-02-22T21:40:38.391Z,9.30
2023-02-22T21:43:14.635Z,9.20
2023-02-22T21:45:45.629Z,9.20
2023-02-22T21:48:15.260Z,9.10
2023-02-22T21:50:45.341Z,9.10
2023-02-22T21:53:23.718Z,9.10
2023-02-22T21:55:53.939Z,9.10
2023-02-22T21:58:25.491Z,9.10
2023-02-22T22:00:56.961Z,9.10
2023-02-22T22:03:27.703Z,9.10
2023-02-22T22:06:00.782Z,9.10
2023-02-22T22:08:36.034Z,9.00
2023-02-22T22:11:09.924Z,9.10
2023-02-22T22:13:43.008Z,9.10
2023-02-22T22:16:16.140Z,9.10
2023-02-22T22:18:50.422Z,9.00
2023-02-22T22:21:23.751Z,9.00
2023-02-22T22:23:56.520Z,9.10
2023-02-22T22:26:27.825Z,9.00
2023-02-22T22:29:01.027Z,9.10
2023-02-22T22:31:32.082Z,9.00
2023-02-22T22:34:02.433Z,9.00
2023-02-22T22:36:35.399Z,9.00
2023-02-22T22:39:15.445Z,9.00
2023-02-22T22:41:45.767Z,9.00
2023-02-22T22:44:22.659Z,9.00
2023-02-22T22:46:56.557Z,9.00
2023-02-22T22:49:30.050Z,9.00
2023-02-22T22:52:05.904Z,8.90
2023-02-22T22:54:36.172Z,8.90
2023-02-22T22:57:06.836Z,9.00
2023-02-22T22:59:39.908Z,8.90
2023-02-22T23:02:11.508Z,9.10
2023-02-22T23:04:40.192Z,9.00
2023-02-22T23:07:08.962Z,8.90
2023-02-22T23:09:39.053Z,8.90
2023-02-22T23:12:18.382Z,8.90
2023-02-22T23:14:52.124Z,8.90
2023-02-22T23:17:31.628Z,8.90
2023-02-22T23:20:12.437Z,8.90
2023-02-22T23:22:46.972Z,8.90
2023-02-22T23:25:18.442Z,8.90
2023-02-22T23:27:47.374Z,8.90
2023-02-22T23:30:19.322Z,8.90
2023-02-22T23:32:48.062Z,8.90
2023-02-22T23:35:19.201Z,8.90
2023-02-22T23:37:53.189Z,8.90
2023-02-22T23:40:21.974Z,8.80
2023-02-22T23:42:51.329Z,8.90
2023-02-22T23:45:25.518Z,8.80
2023-02-22T23:47:55.999Z,8.90
2023-02-22T23:50:27.849Z,8.90
2023-02-22T23:52:58.895Z,8.90
2023-02-22T23:55:32.678Z,8.90
2023-02-22T23:58:03.973Z,8.90
